sensor_id;sensor_type;location;lat;lon;timestamp;P1;durP1;ratioP1;P2;durP2;ratioP2
7985;SDS011;4038;42.612;23.066;2022-10-29T00:01:10;36.33;;;32.67;;
7985;SDS011;4038;42.612;23.066;2022-10-29T00:03:35;36.97;;;33.23;;
7985;SDS011;4038;42.612;23.066;2022-10-29T00:06:02;33.57;;;30.10;;
7985;SDS011;4038;42.612;23.066;2022-10-29T00:08:30;30.33;;;27.37;;
7985;SDS011;4038;42.612;23.066;2022-10-29T00:11:04;29.20;;;26.70;;
7985;SDS011;4038;42.612;23.066;2022-10-29T00:13:38;31.03;;;28.27;;
7985;SDS011;4038;42.612;23.066;2022-10-29T00:16:23;35.40;;;31.83;;
7985;SDS011;4038;42.612;23.066;2022-10-29T00:18:58;31.87;;;28.87;;
7985;SDS011;4038;42.612;23.066;2022-10-29T00:21:23;32.13;;;29.07;;
7985;SDS011;4038;42.612;23.066;2022-10-29T00:23:50;31.03;;;27.83;;
7985;SDS011;4038;42.612;23.066;2022-10-29T00:26:17;30.30;;;27.50;;
7985;SDS011;4038;42.612;23.066;2022-10-29T00:28:43;29.00;;;26.60;;
7985;SDS011;4038;42.612;23.066;2022-10-29T00:31:10;28.50;;;25.83;;
7985;SDS011;4038;42.612;23.066;2022-10-29T00:33:39;31.20;;;27.07;;
7985;SDS011;4038;42.612;23.066;2022-10-29T00:36:05;29.37;;;26.77;;
7985;SDS011;4038;42.612;23.066;2022-10-29T00:38:34;28.83;;;26.33;;
7985;SDS011;4038;42.612;23.066;2022-10-29T00:40:59;27.93;;;25.83;;
7985;SDS011;4038;42.612;23.066;2022-10-29T00:43:25;26.67;;;24.43;;
7985;SDS011;4038;42.612;23.066;2022-10-29T00:45:58;28.47;;;25.97;;
7985;SDS011;4038;42.612;23.066;2022-10-29T00:48:27;26.53;;;24.30;;
7985;SDS011;4038;42.612;23.066;2022-10-29T00:50:56;29.13;;;26.43;;
7985;SDS011;4038;42.612;23.066;2022-10-29T00:53:24;28.87;;;26.60;;
7985;SDS011;4038;42.612;23.066;2022-10-29T00:55:53;27.23;;;24.83;;
7985;SDS011;4038;42.612;23.066;2022-10-29T00:58:18;27.97;;;25.40;;
7985;SDS011;4038;42.612;23.066;2022-10-29T01:00:45;26.73;;;24.43;;
7985;SDS011;4038;42.612;23.066;2022-10-29T01:03:11;29.60;;;26.90;;
7985;SDS011;4038;42.612;23.066;2022-10-29T01:05:37;29.30;;;26.60;;
7985;SDS011;4038;42.612;23.066;2022-10-29T01:08:03;27.33;;;25.03;;
7985;SDS011;4038;42.612;23.066;2022-10-29T01:13:23;29.57;;;27.17;;
7985;SDS011;4038;42.612;23.066;2022-10-29T01:15:57;31.60;;;28.47;;
7985;SDS011;4038;42.612;23.066;2022-10-29T01:18:39;29.93;;;27.40;;
7985;SDS011;4038;42.612;23.066;2022-10-29T01:32:13;26.93;;;24.40;;
7985;SDS011;4038;42.612;23.066;2022-10-29T01:35:08;26.00;;;23.93;;
7985;SDS011;4038;42.612;23.066;2022-10-29T01:37:48;26.80;;;24.57;;
7985;SDS011;4038;42.612;23.066;2022-10-29T01:40:27;27.87;;;25.30;;
7985;SDS011;4038;42.612;23.066;2022-10-29T01:43:14;27.77;;;25.57;;
7985;SDS011;4038;42.612;23.066;2022-10-29T01:48:33;26.17;;;23.97;;
7985;SDS011;4038;42.612;23.066;2022-10-29T01:51:03;26.13;;;23.97;;
7985;SDS011;4038;42.612;23.066;2022-10-29T01:53:36;27.20;;;24.90;;
7985;SDS011;4038;42.612;23.066;2022-10-29T01:56:03;26.33;;;23.87;;
7985;SDS011;4038;42.612;23.066;2022-10-29T01:58:29;26.50;;;24.07;;
7985;SDS011;4038;42.612;23.066;2022-10-29T02:01:02;26.20;;;23.80;;
7985;SDS011;4038;42.612;23.066;2022-10-29T02:06:38;28.17;;;25.70;;
7985;SDS011;4038;42.612;23.066;2022-10-29T02:09:14;28.17;;;25.77;;
7985;SDS011;4038;42.612;23.066;2022-10-29T02:11:45;27.83;;;25.33;;
7985;SDS011;4038;42.612;23.066;2022-10-29T02:16:54;27.93;;;25.83;;
7985;SDS011;4038;42.612;23.066;2022-10-29T02:19:20;26.23;;;24.13;;
7985;SDS011;4038;42.612;23.066;2022-10-29T02:21:46;26.43;;;24.27;;
7985;SDS011;4038;42.612;23.066;2022-10-29T02:24:14;27.33;;;25.03;;
7985;SDS011;4038;42.612;23.066;2022-10-29T02:26:39;27.73;;;25.17;;
7985;SDS011;4038;42.612;23.066;2022-10-29T02:29:05;27.70;;;25.27;;
7985;SDS011;4038;42.612;23.066;2022-10-29T02:31:30;28.00;;;25.53;;
7985;SDS011;4038;42.612;23.066;2022-10-29T02:33:55;25.87;;;23.67;;
7985;SDS011;4038;42.612;23.066;2022-10-29T02:36:21;25.40;;;23.50;;
7985;SDS011;4038;42.612;23.066;2022-10-29T02:38:46;24.23;;;22.33;;
7985;SDS011;4038;42.612;23.066;2022-10-29T02:41:11;26.50;;;24.50;;
7985;SDS011;4038;42.612;23.066;2022-10-29T02:43:37;26.47;;;23.83;;
7985;SDS011;4038;42.612;23.066;2022-10-29T02:46:12;26.07;;;24.07;;
7985;SDS011;4038;42.612;23.066;2022-10-29T02:48:40;25.90;;;23.90;;
7985;SDS011;4038;42.612;23.066;2022-10-29T02:51:06;25.23;;;23.23;;
7985;SDS011;4038;42.612;23.066;2022-10-29T02:53:32;26.23;;;24.10;;
7985;SDS011;4038;42.612;23.066;2022-10-29T02:55:57;25.70;;;23.70;;
7985;SDS011;4038;42.612;23.066;2022-10-29T02:58:23;26.10;;;24.07;;
7985;SDS011;4038;42.612;23.066;2022-10-29T03:00:48;26.60;;;24.30;;
7985;SDS011;4038;42.612;23.066;2022-10-29T03:03:14;26.20;;;24.00;;
7985;SDS011;4038;42.612;23.066;2022-10-29T03:05:40;26.90;;;24.50;;
7985;SDS011;4038;42.612;23.066;2022-10-29T03:08:05;28.93;;;26.20;;
7985;SDS011;4038;42.612;23.066;2022-10-29T03:10:30;28.73;;;25.17;;
7985;SDS011;4038;42.612;23.066;2022-10-29T03:12:59;28.50;;;25.80;;
7985;SDS011;4038;42.612;23.066;2022-10-29T03:15:24;30.20;;;27.37;;
7985;SDS011;4038;42.612;23.066;2022-10-29T03:17:50;33.17;;;27.50;;
7985;SDS011;4038;42.612;23.066;2022-10-29T03:20:15;28.97;;;26.10;;
7985;SDS011;4038;42.612;23.066;2022-10-29T03:22:41;28.10;;;25.60;;
7985;SDS011;4038;42.612;23.066;2022-10-29T03:25:06;28.50;;;25.70;;
7985;SDS011;4038;42.612;23.066;2022-10-29T03:27:32;28.23;;;25.77;;
7985;SDS011;4038;42.612;23.066;2022-10-29T03:30:06;29.10;;;26.47;;
7985;SDS011;4038;42.612;23.066;2022-10-29T03:32:32;29.73;;;27.13;;
7985;SDS011;4038;42.612;23.066;2022-10-29T03:34:58;28.63;;;25.93;;
7985;SDS011;4038;42.612;23.066;2022-10-29T03:37:23;27.03;;;24.63;;
7985;SDS011;4038;42.612;23.066;2022-10-29T03:39:49;29.90;;;26.73;;
7985;SDS011;4038;42.612;23.066;2022-10-29T03:42:14;29.97;;;26.97;;
7985;SDS011;4038;42.612;23.066;2022-10-29T03:44:39;28.87;;;25.87;;
7985;SDS011;4038;42.612;23.066;2022-10-29T03:47:06;28.73;;;26.03;;
7985;SDS011;4038;42.612;23.066;2022-10-29T03:49:33;34.90;;;26.73;;
7985;SDS011;4038;42.612;23.066;2022-10-29T03:51:58;29.60;;;26.00;;
7985;SDS011;4038;42.612;23.066;2022-10-29T03:54:23;36.27;;;31.00;;
7985;SDS011;4038;42.612;23.066;2022-10-29T03:56:49;33.77;;;30.57;;
7985;SDS011;4038;42.612;23.066;2022-10-29T03:59:14;29.93;;;26.70;;
7985;SDS011;4038;42.612;23.066;2022-10-29T04:01:39;29.60;;;26.50;;
7985;SDS011;4038;42.612;23.066;2022-10-29T04:04:05;28.97;;;26.20;;
7985;SDS011;4038;42.612;23.066;2022-10-29T04:06:30;28.93;;;26.33;;
7985;SDS011;4038;42.612;23.066;2022-10-29T04:08:56;27.67;;;25.20;;
7985;SDS011;4038;42.612;23.066;2022-10-29T04:11:21;27.43;;;25.10;;
7985;SDS011;4038;42.612;23.066;2022-10-29T04:13:50;27.80;;;25.50;;
7985;SDS011;4038;42.612;23.066;2022-10-29T04:16:16;27.93;;;25.63;;
7985;SDS011;4038;42.612;23.066;2022-10-29T04:18:42;28.30;;;25.83;;
7985;SDS011;4038;42.612;23.066;2022-10-29T04:21:07;27.57;;;25.07;;
7985;SDS011;4038;42.612;23.066;2022-10-29T04:23:33;27.80;;;25.40;;
7985;SDS011;4038;42.612;23.066;2022-10-29T04:25:58;28.40;;;26.03;;
7985;SDS011;4038;42.612;23.066;2022-10-29T04:28:24;28.70;;;26.07;;
7985;SDS011;4038;42.612;23.066;2022-10-29T04:30:50;28.37;;;25.97;;
7985;SDS011;4038;42.612;23.066;2022-10-29T04:33:16;26.93;;;24.57;;
7985;SDS011;4038;42.612;23.066;2022-10-29T04:35:42;25.53;;;23.43;;
7985;SDS011;4038;42.612;23.066;2022-10-29T04:38:08;27.10;;;24.77;;
7985;SDS011;4038;42.612;23.066;2022-10-29T04:40:34;27.77;;;25.27;;
7985;SDS011;4038;42.612;23.066;2022-10-29T04:42:59;28.23;;;25.33;;
7985;SDS011;4038;42.612;23.066;2022-10-29T04:45:25;26.20;;;23.73;;
7985;SDS011;4038;42.612;23.066;2022-10-29T04:48:08;27.43;;;24.70;;
7985;SDS011;4038;42.612;23.066;2022-10-29T04:50:35;28.53;;;25.90;;
7985;SDS011;4038;42.612;23.066;2022-10-29T04:53:03;26.93;;;24.83;;
7985;SDS011;4038;42.612;23.066;2022-10-29T04:55:29;27.50;;;25.47;;
7985;SDS011;4038;42.612;23.066;2022-10-29T04:57:55;26.87;;;24.27;;
7985;SDS011;4038;42.612;23.066;2022-10-29T05:00:21;27.87;;;25.10;;
7985;SDS011;4038;42.612;23.066;2022-10-29T05:02:48;28.70;;;26.30;;
7985;SDS011;4038;42.612;23.066;2022-10-29T05:05:15;25.80;;;23.80;;
7985;SDS011;4038;42.612;23.066;2022-10-29T05:07:42;25.53;;;23.37;;
7985;SDS011;4038;42.612;23.066;2022-10-29T05:10:07;26.70;;;24.50;;
7985;SDS011;4038;42.612;23.066;2022-10-29T05:12:33;29.07;;;26.27;;
7985;SDS011;4038;42.612;23.066;2022-10-29T05:14:58;30.07;;;27.17;;
7985;SDS011;4038;42.612;23.066;2022-10-29T05:17:24;27.87;;;25.37;;
7985;SDS011;4038;42.612;23.066;2022-10-29T05:19:49;31.63;;;26.80;;
7985;SDS011;4038;42.612;23.066;2022-10-29T05:22:15;30.87;;;27.70;;
7985;SDS011;4038;42.612;23.066;2022-10-29T05:24:40;33.97;;;29.57;;
7985;SDS011;4038;42.612;23.066;2022-10-29T05:27:06;48.50;;;41.30;;
7985;SDS011;4038;42.612;23.066;2022-10-29T05:29:31;47.27;;;32.17;;
7985;SDS011;4038;42.612;23.066;2022-10-29T05:31:57;66.50;;;50.77;;
7985;SDS011;4038;42.612;23.066;2022-10-29T05:34:22;40.50;;;34.43;;
7985;SDS011;4038;42.612;23.066;2022-10-29T05:36:48;35.80;;;29.30;;
7985;SDS011;4038;42.612;23.066;2022-10-29T05:39:13;40.90;;;29.37;;
7985;SDS011;4038;42.612;23.066;2022-10-29T05:41:39;30.10;;;26.83;;
7985;SDS011;4038;42.612;23.066;2022-10-29T05:44:04;35.27;;;27.27;;
7985;SDS011;4038;42.612;23.066;2022-10-29T05:46:30;37.80;;;28.47;;
7985;SDS011;4038;42.612;23.066;2022-10-29T05:48:55;34.30;;;28.63;;
7985;SDS011;4038;42.612;23.066;2022-10-29T05:51:21;29.50;;;26.50;;
7985;SDS011;4038;42.612;23.066;2022-10-29T05:53:46;31.83;;;27.87;;
7985;SDS011;4038;42.612;23.066;2022-10-29T05:56:12;30.07;;;26.90;;
7985;SDS011;4038;42.612;23.066;2022-10-29T05:58:37;35.43;;;29.50;;
7985;SDS011;4038;42.612;23.066;2022-10-29T06:01:06;34.85;;;31.40;;
7985;SDS011;4038;42.612;23.066;2022-10-29T06:03:33;34.35;;;30.90;;
7985;SDS011;4038;42.612;23.066;2022-10-29T06:05:59;34.27;;;30.83;;
7985;SDS011;4038;42.612;23.066;2022-10-29T06:08:24;34.80;;;31.17;;
7985;SDS011;4038;42.612;23.066;2022-10-29T06:10:50;42.87;;;32.00;;
7985;SDS011;4038;42.612;23.066;2022-10-29T06:13:16;48.30;;;33.42;;
7985;SDS011;4038;42.612;23.066;2022-10-29T06:15:43;65.97;;;37.17;;
7985;SDS011;4038;42.612;23.066;2022-10-29T06:18:09;56.15;;;36.40;;
7985;SDS011;4038;42.612;23.066;2022-10-29T06:20:35;51.17;;;33.92;;
7985;SDS011;4038;42.612;23.066;2022-10-29T06:23:02;49.65;;;32.00;;
7985;SDS011;4038;42.612;23.066;2022-10-29T06:25:28;37.13;;;30.20;;
7985;SDS011;4038;42.612;23.066;2022-10-29T06:28:00;38.25;;;28.48;;
7985;SDS011;4038;42.612;23.066;2022-10-29T06:30:29;40.28;;;30.58;;
7985;SDS011;4038;42.612;23.066;2022-10-29T06:32:56;35.75;;;32.08;;
7985;SDS011;4038;42.612;23.066;2022-10-29T06:35:22;39.08;;;34.80;;
7985;SDS011;4038;42.612;23.066;2022-10-29T06:37:47;41.38;;;35.60;;
7985;SDS011;4038;42.612;23.066;2022-10-29T06:40:13;40.42;;;34.45;;
7985;SDS011;4038;42.612;23.066;2022-10-29T06:42:38;36.78;;;32.75;;
7985;SDS011;4038;42.612;23.066;2022-10-29T06:45:04;46.47;;;31.15;;
7985;SDS011;4038;42.612;23.066;2022-10-29T06:47:29;70.32;;;33.35;;
7985;SDS011;4038;42.612;23.066;2022-10-29T06:49:55;61.95;;;33.08;;
7985;SDS011;4038;42.612;23.066;2022-10-29T06:52:21;47.92;;;31.70;;
7985;SDS011;4038;42.612;23.066;2022-10-29T06:54:46;55.53;;;32.13;;
7985;SDS011;4038;42.612;23.066;2022-10-29T06:57:12;50.25;;;32.63;;
7985;SDS011;4038;42.612;23.066;2022-10-29T06:59:37;53.53;;;31.27;;
7985;SDS011;4038;42.612;23.066;2022-10-29T07:02:02;40.72;;;27.35;;
7985;SDS011;4038;42.612;23.066;2022-10-29T07:04:28;39.08;;;27.80;;
7985;SDS011;4038;42.612;23.066;2022-10-29T07:06:53;36.45;;;28.05;;
7985;SDS011;4038;42.612;23.066;2022-10-29T07:09:19;44.20;;;27.13;;
7985;SDS011;4038;42.612;23.066;2022-10-29T07:11:44;46.10;;;28.58;;
7985;SDS011;4038;42.612;23.066;2022-10-29T07:14:09;40.25;;;27.33;;
7985;SDS011;4038;42.612;23.066;2022-10-29T07:16:35;30.55;;;27.27;;
7985;SDS011;4038;42.612;23.066;2022-10-29T07:19:01;30.33;;;27.05;;
7985;SDS011;4038;42.612;23.066;2022-10-29T07:21:28;32.55;;;29.08;;
7985;SDS011;4038;42.612;23.066;2022-10-29T07:23:53;42.70;;;29.13;;
7985;SDS011;4038;42.612;23.066;2022-10-29T07:26:18;34.00;;;27.50;;
7985;SDS011;4038;42.612;23.066;2022-10-29T07:28:44;29.88;;;26.80;;
7985;SDS011;4038;42.612;23.066;2022-10-29T07:31:09;37.05;;;29.83;;
7985;SDS011;4038;42.612;23.066;2022-10-29T07:33:35;39.58;;;32.42;;
7985;SDS011;4038;42.612;23.066;2022-10-29T07:36:00;42.58;;;33.58;;
7985;SDS011;4038;42.612;23.066;2022-10-29T07:38:26;40.92;;;27.50;;
7985;SDS011;4038;42.612;23.066;2022-10-29T07:40:51;34.72;;;28.20;;
7985;SDS011;4038;42.612;23.066;2022-10-29T07:43:19;31.25;;;27.60;;
7985;SDS011;4038;42.612;23.066;2022-10-29T07:45:45;33.78;;;30.55;;
7985;SDS011;4038;42.612;23.066;2022-10-29T07:48:14;32.78;;;29.80;;
7985;SDS011;4038;42.612;23.066;2022-10-29T07:50:39;30.80;;;27.80;;
7985;SDS011;4038;42.612;23.066;2022-10-29T07:53:06;31.90;;;28.63;;
7985;SDS011;4038;42.612;23.066;2022-10-29T07:55:32;31.58;;;28.25;;
7985;SDS011;4038;42.612;23.066;2022-10-29T07:57:59;30.98;;;28.33;;
7985;SDS011;4038;42.612;23.066;2022-10-29T08:00:34;31.38;;;28.40;;
7985;SDS011;4038;42.612;23.066;2022-10-29T08:03:01;29.60;;;26.88;;
7985;SDS011;4038;42.612;23.066;2022-10-29T08:05:27;29.08;;;26.25;;
7985;SDS011;4038;42.612;23.066;2022-10-29T08:07:54;30.27;;;27.45;;
7985;SDS011;4038;42.612;23.066;2022-10-29T08:10:20;32.47;;;29.63;;
7985;SDS011;4038;42.612;23.066;2022-10-29T08:15:15;29.40;;;26.52;;
7985;SDS011;4038;42.612;23.066;2022-10-29T08:17:43;29.85;;;27.00;;
7985;SDS011;4038;42.612;23.066;2022-10-29T08:20:09;30.55;;;26.67;;
7985;SDS011;4038;42.612;23.066;2022-10-29T08:22:35;32.05;;;28.85;;
7985;SDS011;4038;42.612;23.066;2022-10-29T08:25:04;30.75;;;27.83;;
7985;SDS011;4038;42.612;23.066;2022-10-29T08:27:29;28.30;;;25.38;;
7985;SDS011;4038;42.612;23.066;2022-10-29T08:29:55;32.17;;;28.38;;
7985;SDS011;4038;42.612;23.066;2022-10-29T08:32:23;30.67;;;27.50;;
7985;SDS011;4038;42.612;23.066;2022-10-29T08:34:48;35.08;;;28.33;;
7985;SDS011;4038;42.612;23.066;2022-10-29T08:37:14;32.55;;;29.20;;
7985;SDS011;4038;42.612;23.066;2022-10-29T08:39:39;33.10;;;28.58;;
7985;SDS011;4038;42.612;23.066;2022-10-29T08:45:19;32.08;;;28.95;;
7985;SDS011;4038;42.612;23.066;2022-10-29T08:50:39;29.90;;;27.15;;
7985;SDS011;4038;42.612;23.066;2022-10-29T08:53:54;28.80;;;25.85;;
7985;SDS011;4038;42.612;23.066;2022-10-29T09:01:44;30.90;;;28.27;;
7985;SDS011;4038;42.612;23.066;2022-10-29T09:04:23;29.90;;;27.13;;
7985;SDS011;4038;42.612;23.066;2022-10-29T09:09:38;28.98;;;26.42;;
7985;SDS011;4038;42.612;23.066;2022-10-29T09:23:32;23.98;;;21.98;;
7985;SDS011;4038;42.612;23.066;2022-10-29T09:26:16;23.58;;;21.98;;
7985;SDS011;4038;42.612;23.066;2022-10-29T09:29:01;24.70;;;22.88;;
7985;SDS011;4038;42.612;23.066;2022-10-29T09:31:48;25.80;;;24.00;;
7985;SDS011;4038;42.612;23.066;2022-10-29T09:34:21;23.27;;;21.58;;
7985;SDS011;4038;42.612;23.066;2022-10-29T09:36:55;33.65;;;22.00;;
7985;SDS011;4038;42.612;23.066;2022-10-29T09:39:32;24.02;;;22.30;;
7985;SDS011;4038;42.612;23.066;2022-10-29T09:42:01;23.35;;;21.75;;
7985;SDS011;4038;42.612;23.066;2022-10-29T09:44:37;24.60;;;22.73;;
7985;SDS011;4038;42.612;23.066;2022-10-29T09:47:25;23.02;;;21.42;;
7985;SDS011;4038;42.612;23.066;2022-10-29T09:50:05;22.98;;;21.27;;
7985;SDS011;4038;42.612;23.066;2022-10-29T09:52:41;23.60;;;22.00;;
7985;SDS011;4038;42.612;23.066;2022-10-29T09:55:27;23.95;;;22.15;;
7985;SDS011;4038;42.612;23.066;2022-10-29T09:58:02;23.98;;;22.30;;
7985;SDS011;4038;42.612;23.066;2022-10-29T10:00:31;22.92;;;21.27;;
7985;SDS011;4038;42.612;23.066;2022-10-29T10:03:01;24.02;;;22.23;;
7985;SDS011;4038;42.612;23.066;2022-10-29T10:05:35;23.98;;;22.27;;
7985;SDS011;4038;42.612;23.066;2022-10-29T10:08:19;22.52;;;20.92;;
7985;SDS011;4038;42.612;23.066;2022-10-29T10:10:49;23.40;;;21.83;;
7985;SDS011;4038;42.612;23.066;2022-10-29T10:13:19;24.60;;;22.80;;
7985;SDS011;4038;42.612;23.066;2022-10-29T10:15:49;23.40;;;21.73;;
7985;SDS011;4038;42.612;23.066;2022-10-29T10:20:46;22.50;;;20.60;;
7985;SDS011;4038;42.612;23.066;2022-10-29T10:23:24;24.80;;;22.88;;
7985;SDS011;4038;42.612;23.066;2022-10-29T10:25:52;23.38;;;21.77;;
7985;SDS011;4038;42.612;23.066;2022-10-29T10:28:23;23.45;;;21.75;;
7985;SDS011;4038;42.612;23.066;2022-10-29T10:31:11;22.60;;;21.00;;
7985;SDS011;4038;42.612;23.066;2022-10-29T10:33:42;21.88;;;20.13;;
7985;SDS011;4038;42.612;23.066;2022-10-29T10:36:22;22.60;;;21.00;;
7985;SDS011;4038;42.612;23.066;2022-10-29T10:38:51;24.08;;;21.83;;
7985;SDS011;4038;42.612;23.066;2022-10-29T10:41:26;22.05;;;20.25;;
7985;SDS011;4038;42.612;23.066;2022-10-29T10:43:54;22.15;;;20.33;;
7985;SDS011;4038;42.612;23.066;2022-10-29T10:46:25;21.38;;;19.73;;
7985;SDS011;4038;42.612;23.066;2022-10-29T10:48:57;22.73;;;21.02;;
7985;SDS011;4038;42.612;23.066;2022-10-29T10:51:29;23.55;;;21.65;;
7985;SDS011;4038;42.612;23.066;2022-10-29T10:53:58;23.05;;;21.45;;
7985;SDS011;4038;42.612;23.066;2022-10-29T10:56:24;21.92;;;19.95;;
7985;SDS011;4038;42.612;23.066;2022-10-29T10:58:52;21.55;;;20.00;;
7985;SDS011;4038;42.612;23.066;2022-10-29T11:01:36;22.35;;;20.25;;
7985;SDS011;4038;42.612;23.066;2022-10-29T11:06:58;23.75;;;21.92;;
7985;SDS011;4038;42.612;23.066;2022-10-29T11:10:01;22.10;;;20.35;;
7985;SDS011;4038;42.612;23.066;2022-10-29T11:18:03;22.40;;;20.50;;
7985;SDS011;4038;42.612;23.066;2022-10-29T11:20:37;22.50;;;20.98;;
7985;SDS011;4038;42.612;23.066;2022-10-29T11:23:22;22.63;;;20.73;;
7985;SDS011;4038;42.612;23.066;2022-10-29T11:26:08;23.45;;;21.65;;
7985;SDS011;4038;42.612;23.066;2022-10-29T11:28:40;22.45;;;20.85;;
7985;SDS011;4038;42.612;23.066;2022-10-29T11:31:35;23.77;;;21.98;;
7985;SDS011;4038;42.612;23.066;2022-10-29T11:34:15;22.30;;;20.58;;
7985;SDS011;4038;42.612;23.066;2022-10-29T11:36:54;22.25;;;20.73;;
7985;SDS011;4038;42.612;23.066;2022-10-29T11:42:00;22.48;;;20.98;;
7985;SDS011;4038;42.612;23.066;2022-10-29T11:44:26;23.48;;;21.42;;
7985;SDS011;4038;42.612;23.066;2022-10-29T11:55:59;22.75;;;21.05;;
7985;SDS011;4038;42.612;23.066;2022-10-29T12:04:07;22.17;;;20.55;;
7985;SDS011;4038;42.612;23.066;2022-10-29T12:06:51;23.33;;;21.33;;
7985;SDS011;4038;42.612;23.066;2022-10-29T12:09:44;22.77;;;20.92;;
7985;SDS011;4038;42.612;23.066;2022-10-29T12:15:25;22.45;;;20.75;;
7985;SDS011;4038;42.612;23.066;2022-10-29T12:18:09;21.92;;;20.23;;
7985;SDS011;4038;42.612;23.066;2022-10-29T12:26:39;23.20;;;21.50;;
7985;SDS011;4038;42.612;23.066;2022-10-29T12:34:57;24.70;;;22.90;;
7985;SDS011;4038;42.612;23.066;2022-10-29T12:37:41;24.00;;;21.55;;
7985;SDS011;4038;42.612;23.066;2022-10-29T12:40:23;23.98;;;22.10;;
7985;SDS011;4038;42.612;23.066;2022-10-29T12:42:50;23.50;;;21.73;;
7985;SDS011;4038;42.612;23.066;2022-10-29T12:45:24;23.40;;;21.70;;
7985;SDS011;4038;42.612;23.066;2022-10-29T12:48:12;22.85;;;21.23;;
7985;SDS011;4038;42.612;23.066;2022-10-29T12:54:25;24.20;;;22.52;;
7985;SDS011;4038;42.612;23.066;2022-10-29T12:56:42;23.25;;;21.65;;
7985;SDS011;4038;42.612;23.066;2022-10-29T13:01:51;22.58;;;20.77;;
7985;SDS011;4038;42.612;23.066;2022-10-29T13:04:21;23.23;;;21.33;;
7985;SDS011;4038;42.612;23.066;2022-10-29T13:07:20;22.88;;;21.17;;
7985;SDS011;4038;42.612;23.066;2022-10-29T13:09:47;23.67;;;21.80;;
7985;SDS011;4038;42.612;23.066;2022-10-29T13:12:12;24.17;;;22.48;;
7985;SDS011;4038;42.612;23.066;2022-10-29T13:15:19;23.00;;;21.38;;
7985;SDS011;4038;42.612;23.066;2022-10-29T13:17:47;22.67;;;20.90;;
7985;SDS011;4038;42.612;23.066;2022-10-29T13:20:34;22.88;;;21.17;;
7985;SDS011;4038;42.612;23.066;2022-10-29T13:23:02;23.23;;;21.52;;
7985;SDS011;4038;42.612;23.066;2022-10-29T13:25:57;24.13;;;22.20;;
7985;SDS011;4038;42.612;23.066;2022-10-29T13:30:52;22.90;;;21.10;;
7985;SDS011;4038;42.612;23.066;2022-10-29T13:38:40;21.88;;;20.23;;
7985;SDS011;4038;42.612;23.066;2022-10-29T13:44:21;22.50;;;20.75;;
7985;SDS011;4038;42.612;23.066;2022-10-29T13:46:51;23.23;;;21.13;;
7985;SDS011;4038;42.612;23.066;2022-10-29T13:57:07;23.23;;;21.52;;
7985;SDS011;4038;42.612;23.066;2022-10-29T14:10:24;25.85;;;24.13;;
7985;SDS011;4038;42.612;23.066;2022-10-29T14:12:55;24.05;;;22.33;;
7985;SDS011;4038;42.612;23.066;2022-10-29T14:15:24;25.10;;;23.17;;
7985;SDS011;4038;42.612;23.066;2022-10-29T14:17:49;24.65;;;22.83;;
7985;SDS011;4038;42.612;23.066;2022-10-29T14:20:22;23.65;;;21.90;;
7985;SDS011;4038;42.612;23.066;2022-10-29T14:22:50;27.33;;;24.65;;
7985;SDS011;4038;42.612;23.066;2022-10-29T14:25:34;24.80;;;22.73;;
7985;SDS011;4038;42.612;23.066;2022-10-29T14:28:07;24.38;;;22.63;;
7985;SDS011;4038;42.612;23.066;2022-10-29T14:30:38;24.33;;;22.52;;
7985;SDS011;4038;42.612;23.066;2022-10-29T14:38:33;23.08;;;21.20;;
7985;SDS011;4038;42.612;23.066;2022-10-29T14:41:05;24.00;;;22.20;;
7985;SDS011;4038;42.612;23.066;2022-10-29T14:43:30;24.48;;;22.88;;
7985;SDS011;4038;42.612;23.066;2022-10-29T14:46:07;24.13;;;22.52;;
7985;SDS011;4038;42.612;23.066;2022-10-29T14:48:45;24.00;;;22.33;;
7985;SDS011;4038;42.612;23.066;2022-10-29T14:51:18;25.85;;;24.02;;
7985;SDS011;4038;42.612;23.066;2022-10-29T14:53:45;24.42;;;22.67;;
7985;SDS011;4038;42.612;23.066;2022-10-29T14:56:19;23.92;;;22.08;;
7985;SDS011;4038;42.612;23.066;2022-10-29T14:58:49;23.52;;;21.92;;
7985;SDS011;4038;42.612;23.066;2022-10-29T15:01:14;22.45;;;20.92;;
7985;SDS011;4038;42.612;23.066;2022-10-29T15:03:44;22.38;;;20.77;;
7985;SDS011;4038;42.612;23.066;2022-10-29T15:08:44;23.25;;;21.65;;
7985;SDS011;4038;42.612;23.066;2022-10-29T15:16:57;24.23;;;22.42;;
7985;SDS011;4038;42.612;23.066;2022-10-29T15:19:24;22.60;;;20.90;;
7985;SDS011;4038;42.612;23.066;2022-10-29T15:21:50;22.83;;;20.83;;
7985;SDS011;4038;42.612;23.066;2022-10-29T15:24:16;23.05;;;20.95;;
7985;SDS011;4038;42.612;23.066;2022-10-29T15:26:50;22.90;;;21.05;;
7985;SDS011;4038;42.612;23.066;2022-10-29T15:29:23;23.60;;;22.00;;
7985;SDS011;4038;42.612;23.066;2022-10-29T15:31:52;23.33;;;21.33;;
7985;SDS011;4038;42.612;23.066;2022-10-29T15:34:35;22.45;;;20.85;;
7985;SDS011;4038;42.612;23.066;2022-10-29T15:37:19;22.15;;;20.48;;
7985;SDS011;4038;42.612;23.066;2022-10-29T15:42:24;23.00;;;21.20;;
7985;SDS011;4038;42.612;23.066;2022-10-29T15:47:33;23.00;;;21.33;;
7985;SDS011;4038;42.612;23.066;2022-10-29T15:50:01;24.42;;;22.63;;
7985;SDS011;4038;42.612;23.066;2022-10-29T15:52:31;22.90;;;21.17;;
7985;SDS011;4038;42.612;23.066;2022-10-29T15:55:04;24.10;;;22.40;;
7985;SDS011;4038;42.612;23.066;2022-10-29T15:57:45;23.67;;;21.73;;
7985;SDS011;4038;42.612;23.066;2022-10-29T16:00:12;22.40;;;20.80;;
7985;SDS011;4038;42.612;23.066;2022-10-29T16:02:37;24.45;;;22.58;;
7985;SDS011;4038;42.612;23.066;2022-10-29T16:05:03;23.73;;;21.60;;
7985;SDS011;4038;42.612;23.066;2022-10-29T16:07:29;23.98;;;22.17;;
7985;SDS011;4038;42.612;23.066;2022-10-29T16:09:54;24.75;;;22.85;;
7985;SDS011;4038;42.612;23.066;2022-10-29T16:12:23;23.65;;;21.70;;
7985;SDS011;4038;42.612;23.066;2022-10-29T16:14:49;23.58;;;21.67;;
7985;SDS011;4038;42.612;23.066;2022-10-29T16:17:15;24.15;;;21.90;;
7985;SDS011;4038;42.612;23.066;2022-10-29T16:19:42;23.92;;;22.10;;
7985;SDS011;4038;42.612;23.066;2022-10-29T16:22:27;23.75;;;21.75;;
7985;SDS011;4038;42.612;23.066;2022-10-29T16:24:53;23.52;;;21.83;;
7985;SDS011;4038;42.612;23.066;2022-10-29T16:27:19;24.13;;;22.27;;
7985;SDS011;4038;42.612;23.066;2022-10-29T16:29:44;22.67;;;21.08;;
7985;SDS011;4038;42.612;23.066;2022-10-29T16:32:16;23.60;;;21.80;;
7985;SDS011;4038;42.612;23.066;2022-10-29T16:34:45;26.02;;;23.90;;
7985;SDS011;4038;42.612;23.066;2022-10-29T16:37:12;25.17;;;23.23;;
7985;SDS011;4038;42.612;23.066;2022-10-29T16:39:39;24.17;;;22.30;;
7985;SDS011;4038;42.612;23.066;2022-10-29T16:42:05;23.63;;;21.83;;
7985;SDS011;4038;42.612;23.066;2022-10-29T16:44:31;25.33;;;23.33;;
7985;SDS011;4038;42.612;23.066;2022-10-29T16:46:56;24.42;;;22.67;;
7985;SDS011;4038;42.612;23.066;2022-10-29T16:49:22;25.95;;;24.15;;
7985;SDS011;4038;42.612;23.066;2022-10-29T16:51:47;23.98;;;22.13;;
7985;SDS011;4038;42.612;23.066;2022-10-29T16:54:13;24.58;;;22.77;;
7985;SDS011;4038;42.612;23.066;2022-10-29T16:56:38;23.65;;;21.95;;
7985;SDS011;4038;42.612;23.066;2022-10-29T16:59:04;24.42;;;22.73;;
7985;SDS011;4038;42.612;23.066;2022-10-29T17:01:29;23.90;;;22.17;;
7985;SDS011;4038;42.612;23.066;2022-10-29T17:03:55;23.80;;;22.20;;
7985;SDS011;4038;42.612;23.066;2022-10-29T17:06:20;23.45;;;21.48;;
7985;SDS011;4038;42.612;23.066;2022-10-29T17:08:45;25.30;;;23.20;;
7985;SDS011;4038;42.612;23.066;2022-10-29T17:11:11;29.48;;;26.77;;
7985;SDS011;4038;42.612;23.066;2022-10-29T17:13:36;27.92;;;25.42;;
7985;SDS011;4038;42.612;23.066;2022-10-29T17:16:09;27.60;;;25.25;;